createdAt,value
2023-08-14T00:00:13.659Z,100.00
2023-08-14T00:03:15.271Z,100.00
2023-08-14T00:06:16.887Z,100.00
2023-08-14T00:09:18.441Z,100.00
2023-08-14T00:12:19.947Z,100.00
2023-08-14T00:15:21.868Z,100.00
2023-08-14T00:18:23.419Z,100.00
2023-08-14T00:21:25.223Z,100.00
2023-08-14T00:24:26.838Z,100.00
2023-08-14T00:27:28.412Z,100.00
2023-08-14T00:30:30.115Z,100.00
2023-08-14T00:33:32.120Z,100.00
2023-08-14T00:36:34.072Z,100.00
2023-08-14T00:39:35.716Z,100.00
2023-08-14T00:42:39.461Z,100.00
2023-08-14T00:45:46.349Z,100.00
2023-08-14T00:48:48.865Z,100.00
2023-08-14T00:51:50.488Z,100.00
2023-08-14T00:54:52.845Z,100.00
2023-08-14T00:57:55.458Z,100.00
2023-08-14T01:00:59.042Z,100.00
2023-08-14T01:04:00.699Z,100.00
2023-08-14T01:07:04.723Z,100.00
2023-08-14T01:10:08.865Z,100.00
2023-08-14T01:13:31.931Z,100.00
2023-08-14T01:16:39.385Z,100.00
2023-08-14T01:19:42.781Z,100.00
2023-08-14T01:23:05.797Z,100.00
2023-08-14T01:26:08.362Z,100.00
2023-08-14T01:29:10.155Z,100.00
2023-08-14T01:32:11.693Z,100.00
2023-08-14T01:35:13.502Z,100.00
2023-08-14T01:38:40.684Z,100.00
2023-08-14T01:42:01.051Z,100.00
2023-08-14T01:45:08.329Z,100.00
2023-08-14T01:48:12.257Z,100.00
2023-08-14T01:51:14.779Z,100.00
2023-08-14T01:54:16.383Z,100.00
2023-08-14T01:57:18.106Z,100.00
2023-08-14T02:00:20.703Z,100.00
2023-08-14T02:03:22.441Z,100.00
2023-08-14T02:06:24.086Z,100.00
2023-08-14T02:09:25.632Z,100.00
2023-08-14T02:12:27.300Z,100.00
2023-08-14T02:15:28.848Z,100.00
2023-08-14T02:18:30.547Z,100.00
2023-08-14T02:21:32.108Z,100.00
2023-08-14T02:24:33.817Z,100.00
2023-08-14T02:27:35.347Z,100.00
2023-08-14T02:30:38.462Z,100.00
2023-08-14T02:33:40.747Z,100.00
2023-08-14T02:36:42.366Z,100.00
2023-08-14T02:39:44.298Z,100.00
2023-08-14T02:42:45.822Z,100.00
2023-08-14T02:45:47.466Z,100.00
2023-08-14T02:48:49.024Z,100.00
2023-08-14T02:51:51.716Z,100.00
2023-08-14T02:54:53.280Z,100.00
2023-08-14T02:57:54.871Z,100.00
2023-08-14T03:00:56.417Z,100.00
2023-08-14T03:03:57.980Z,100.00
2023-08-14T03:06:59.575Z,100.00
2023-08-14T03:10:01.111Z,100.00
2023-08-14T03:13:02.748Z,100.00
2023-08-14T03:16:04.468Z,100.00
2023-08-14T03:19:06.043Z,100.00
2023-08-14T03:22:07.606Z,100.00
2023-08-14T03:25:09.331Z,100.00
2023-08-14T03:28:11.151Z,100.00
2023-08-14T03:31:14.179Z,100.00
2023-08-14T03:34:15.830Z,100.00
2023-08-14T03:37:18.128Z,100.00
2023-08-14T03:40:19.743Z,100.00
2023-08-14T03:43:21.282Z,100.00
2023-08-14T03:46:22.875Z,100.00
2023-08-14T03:49:24.474Z,100.00
2023-08-14T03:52:26.169Z,100.00
2023-08-14T03:55:29.179Z,100.00
2023-08-14T03:58:32.256Z,100.00
2023-08-14T04:01:33.919Z,100.00
2023-08-14T04:04:36.354Z,100.00
2023-08-14T04:07:37.906Z,100.00
2023-08-14T04:10:40.211Z,100.00
2023-08-14T04:13:41.816Z,100.00
2023-08-14T04:16:44.998Z,100.00
2023-08-14T04:19:46.859Z,100.00
2023-08-14T04:22:48.417Z,100.00
2023-08-14T04:25:49.959Z,100.00
2023-08-14T04:28:52.761Z,100.00
2023-08-14T04:31:54.590Z,100.00
2023-08-14T04:34:56.127Z,100.00
2023-08-14T04:37:57.726Z,100.00
2023-08-14T04:41:00.234Z,100.00
2023-08-14T04:44:01.979Z,100.00
2023-08-14T04:47:05.283Z,100.00
2023-08-14T04:50:07.842Z,100.00
2023-08-14T04:53:10.029Z,100.00
2023-08-14T04:56:14.453Z,100.00
2023-08-14T04:59:16.052Z,100.00
2023-08-14T05:02:18.711Z,100.00
2023-08-14T05:05:20.927Z,100.00
2023-08-14T05:08:22.741Z,100.00
2023-08-14T05:11:25.347Z,100.00
2023-08-14T05:14:27.035Z,100.00
2023-08-14T05:17:28.745Z,100.00
2023-08-14T05:20:34.513Z,100.00
2023-08-14T05:23:36.058Z,100.00
2023-08-14T05:26:37.577Z,100.00
2023-08-14T05:29:39.238Z,100.00
2023-08-14T05:32:41.212Z,100.00
2023-08-14T05:35:42.886Z,100.00
2023-08-14T05:38:46.571Z,100.00
2023-08-14T05:41:48.170Z,100.00
2023-08-14T05:44:49.702Z,100.00
2023-08-14T05:47:51.238Z,100.00
2023-08-14T05:50:55.369Z,100.00
2023-08-14T05:53:56.889Z,100.00
2023-08-14T05:56:58.398Z,100.00
2023-08-14T05:59:59.929Z,100.00
2023-08-14T06:03:01.887Z,100.00
2023-08-14T06:06:05.720Z,100.00
2023-08-14T06:09:07.840Z,100.00
2023-08-14T06:12:09.525Z,100.00
2023-08-14T06:15:12.173Z,100.00
2023-08-14T06:18:13.703Z,100.00
2023-08-14T06:21:15.240Z,100.00
2023-08-14T06:24:17.488Z,100.00
2023-08-14T06:27:19.964Z,100.00
2023-08-14T06:30:23.152Z,100.00
2023-08-14T06:33:25.258Z,100.00
2023-08-14T06:36:26.827Z,100.00
2023-08-14T06:39:29.017Z,100.00
2023-08-14T06:42:30.588Z,100.00
2023-08-14T06:45:32.349Z,100.00
2023-08-14T06:48:33.837Z,100.00
2023-08-14T06:51:35.536Z,100.00
2023-08-14T06:54:37.373Z,100.00
2023-08-14T06:57:38.893Z,100.00
2023-08-14T07:00:40.487Z,100.00
2023-08-14T07:03:42.184Z,100.00
2023-08-14T07:06:43.835Z,100.00
2023-08-14T07:09:45.515Z,100.00
2023-08-14T07:12:47.082Z,100.00
2023-08-14T07:15:49.199Z,100.00
2023-08-14T07:18:50.768Z,100.00
2023-08-14T07:21:52.336Z,100.00
2023-08-14T07:24:53.865Z,100.00
2023-08-14T07:27:55.460Z,100.00
2023-08-14T07:30:57.013Z,100.00
2023-08-14T07:33:58.610Z,100.00
2023-08-14T07:37:00.171Z,100.00
2023-08-14T07:40:01.804Z,100.00
2023-08-14T07:43:03.496Z,100.00
2023-08-14T07:46:05.119Z,100.00
2023-08-14T07:49:06.655Z,100.00
2023-08-14T07:52:08.255Z,100.00
2023-08-14T07:55:09.799Z,100.00
2023-08-14T07:58:11.397Z,100.00
2023-08-14T08:01:13.034Z,100.00
2023-08-14T08:04:26.711Z,100.00
2023-08-14T08:07:28.934Z,100.00
2023-08-14T08:10:31.174Z,100.00
2023-08-14T08:13:32.721Z,100.00
2023-08-14T08:16:37.237Z,100.00
2023-08-14T08:19:38.992Z,100.00
2023-08-14T08:22:40.652Z,100.00
2023-08-14T08:25:42.174Z,100.00
2023-08-14T08:28:43.695Z,100.00
2023-08-14T08:31:45.254Z,100.00
2023-08-14T08:34:46.853Z,100.00
2023-08-14T08:37:48.369Z,100.00
2023-08-14T08:40:50.310Z,100.00
2023-08-14T08:44:17.618Z,100.00
2023-08-14T08:47:24.145Z,100.00
2023-08-14T08:50:27.059Z,100.00
2023-08-14T08:53:29.473Z,100.00
2023-08-14T08:56:31.181Z,100.00
2023-08-14T08:59:34.117Z,100.00
2023-08-14T09:02:36.189Z,100.00
2023-08-14T09:05:37.996Z,100.00
2023-08-14T09:08:39.581Z,100.00
2023-08-14T09:11:41.464Z,100.00
2023-08-14T09:14:46.166Z,98.65
2023-08-14T09:17:47.754Z,100.00
2023-08-14T09:20:49.323Z,100.00
2023-08-14T09:23:50.908Z,100.00
2023-08-14T09:26:53.372Z,98.98
2023-08-14T09:29:55.256Z,100.00
2023-08-14T09:32:57.181Z,95.14
2023-08-14T09:35:59.228Z,91.60
2023-08-14T09:39:01.331Z,94.88
2023-08-14T09:42:02.963Z,97.62
2023-08-14T09:45:04.869Z,96.39
2023-08-14T09:48:06.925Z,97.08
2023-08-14T09:51:16.482Z,90.38
2023-08-14T09:54:18.218Z,91.55
2023-08-14T09:57:27.510Z,92.35
2023-08-14T10:00:33.082Z,90.06
2023-08-14T10:03:39.945Z,84.68
2023-08-14T10:06:41.649Z,88.03
2023-08-14T10:09:46.823Z,87.64
2023-08-14T10:12:55.057Z,82.53
2023-08-14T10:15:59.186Z,89.41
2023-08-14T10:19:04.366Z,92.58
2023-08-14T10:22:07.579Z,89.48
2023-08-14T10:25:09.927Z,90.39
2023-08-14T10:28:11.483Z,93.79
2023-08-14T10:31:13.772Z,94.43
2023-08-14T10:34:17.455Z,91.85
2023-08-14T10:37:30.239Z,90.96
2023-08-14T10:40:31.802Z,87.40
2023-08-14T10:43:33.383Z,85.44
2023-08-14T10:46:41.763Z,76.61
2023-08-14T10:49:49.678Z,82.12
2023-08-14T10:52:56.447Z,76.79
2023-08-14T10:55:59.029Z,77.50
2023-08-14T10:59:00.564Z,73.10
2023-08-14T11:02:10.933Z,73.40
2023-08-14T11:05:14.688Z,76.38
2023-08-14T11:08:17.503Z,74.42
2023-08-14T11:11:19.051Z,73.55
2023-08-14T11:14:20.699Z,71.49
2023-08-14T11:17:24.677Z,70.13
2023-08-14T11:20:31.044Z,70.28
2023-08-14T11:23:34.407Z,69.64
2023-08-14T11:26:35.873Z,67.54
2023-08-14T11:29:51.683Z,68.13
2023-08-14T11:32:55.362Z,60.31
2023-08-14T11:36:03.980Z,60.79
2023-08-14T11:39:12.919Z,59.30
2023-08-14T11:42:14.650Z,58.71
2023-08-14T11:45:16.313Z,59.07
2023-08-14T11:48:18.032Z,56.19
2023-08-14T11:51:20.881Z,55.45
2023-08-14T11:54:23.165Z,52.57
2023-08-14T11:57:31.147Z,45.79
2023-08-14T12:00:34.368Z,43.59
2023-08-14T12:03:36.267Z,48.99
2023-08-14T12:06:37.924Z,50.75
2023-08-14T12:09:40.130Z,51.30
2023-08-14T12:12:51.421Z,49.15
2023-08-14T12:15:56.908Z,48.36
2023-08-14T12:18:58.596Z,44.25
2023-08-14T12:22:01.384Z,39.38
2023-08-14T12:25:05.832Z,44.64
2023-08-14T12:28:07.362Z,48.88
2023-08-14T12:31:08.968Z,53.28
2023-08-14T12:34:10.627Z,54.88
2023-08-14T12:37:15.234Z,54.69
2023-08-14T12:40:16.826Z,54.77
2023-08-14T12:43:21.302Z,55.85
2023-08-14T12:46:26.937Z,57.72
2023-08-14T12:49:28.722Z,55.26
2023-08-14T12:52:30.786Z,55.30
2023-08-14T12:55:32.627Z,57.08
2023-08-14T12:58:34.202Z,58.82
2023-08-14T13:01:36.194Z,61.99
2023-08-14T13:07:44.372Z,66.85
2023-08-14T13:10:45.878Z,66.55
2023-08-14T13:13:49.435Z,76.40
2023-08-14T13:16:51.068Z,93.58
2023-08-14T13:19:53.626Z,100.00
2023-08-14T13:22:55.693Z,100.00
2023-08-14T13:25:57.253Z,100.00
2023-08-14T13:28:58.796Z,100.00
2023-08-14T13:32:00.362Z,100.00
2023-08-14T13:35:01.968Z,91.14
2023-08-14T13:38:03.545Z,81.62
2023-08-14T13:41:05.210Z,73.63
2023-08-14T13:44:06.900Z,74.42
2023-08-14T13:47:08.641Z,73.56
2023-08-14T13:50:12.126Z,68.69
2023-08-14T13:53:18.295Z,62.72
2023-08-14T13:56:19.896Z,57.04
2023-08-14T13:59:21.431Z,50.49
2023-08-14T14:02:22.958Z,51.08
2023-08-14T14:05:24.647Z,51.39
2023-08-14T14:08:26.250Z,53.88
2023-08-14T14:11:27.790Z,55.88
2023-08-14T14:14:29.332Z,50.56
2023-08-14T14:17:30.835Z,41.25
2023-08-14T14:20:33.229Z,37.67
2023-08-14T14:23:34.792Z,35.27
2023-08-14T14:26:36.333Z,37.58
2023-08-14T14:29:37.978Z,42.94
2023-08-14T14:32:39.532Z,43.97
2023-08-14T14:35:41.124Z,43.12
2023-08-14T14:38:42.622Z,45.58
2023-08-14T14:41:44.491Z,49.43
2023-08-14T14:44:47.862Z,50.69
2023-08-14T14:47:49.439Z,51.63
2023-08-14T14:50:55.583Z,44.45
2023-08-14T14:53:57.165Z,45.20
2023-08-14T14:56:58.676Z,40.17
2023-08-14T15:00:00.242Z,36.10
2023-08-14T15:03:01.844Z,34.27
2023-08-14T15:06:05.208Z,36.96
2023-08-14T15:09:07.145Z,42.41
2023-08-14T15:12:08.775Z,45.30
2023-08-14T15:15:10.485Z,49.39
2023-08-14T15:18:12.195Z,52.75
